sensor_id;sensor_type;location;lat;lon;timestamp;P1;durP1;ratioP1;P2;durP2;ratioP2
67715;SDS011;54508;43.238;25.306;2023-03-08T00:00:04;11.68;;;7.32;;
67715;SDS011;54508;43.238;25.306;2023-03-08T00:02:31;12.02;;;7.30;;
67715;SDS011;54508;43.238;25.306;2023-03-08T00:04:56;12.23;;;7.63;;
67715;SDS011;54508;43.238;25.306;2023-03-08T00:07:22;11.10;;;6.60;;
67715;SDS011;54508;43.238;25.306;2023-03-08T00:09:48;14.68;;;7.25;;
67715;SDS011;54508;43.238;25.306;2023-03-08T00:12:13;8.48;;;5.97;;
67715;SDS011;54508;43.238;25.306;2023-03-08T00:14:39;11.17;;;6.73;;
67715;SDS011;54508;43.238;25.306;2023-03-08T00:17:05;11.90;;;6.57;;
67715;SDS011;54508;43.238;25.306;2023-03-08T00:19:31;10.57;;;6.60;;
67715;SDS011;54508;43.238;25.306;2023-03-08T00:21:56;11.63;;;7.13;;
67715;SDS011;54508;43.238;25.306;2023-03-08T00:24:22;10.60;;;6.10;;
67715;SDS011;54508;43.238;25.306;2023-03-08T00:26:48;13.73;;;6.20;;
67715;SDS011;54508;43.238;25.306;2023-03-08T00:29:14;11.00;;;6.30;;
67715;SDS011;54508;43.238;25.306;2023-03-08T00:31:39;11.10;;;6.00;;
67715;SDS011;54508;43.238;25.306;2023-03-08T00:34:05;10.37;;;6.20;;
67715;SDS011;54508;43.238;25.306;2023-03-08T00:36:31;10.48;;;6.47;;
67715;SDS011;54508;43.238;25.306;2023-03-08T00:38:56;11.33;;;6.00;;
67715;SDS011;54508;43.238;25.306;2023-03-08T00:41:22;8.53;;;5.77;;
67715;SDS011;54508;43.238;25.306;2023-03-08T00:43:47;9.35;;;5.60;;
67715;SDS011;54508;43.238;25.306;2023-03-08T00:46:13;10.00;;;5.83;;
67715;SDS011;54508;43.238;25.306;2023-03-08T00:48:39;9.57;;;5.10;;
67715;SDS011;54508;43.238;25.306;2023-03-08T00:51:05;10.43;;;6.07;;
67715;SDS011;54508;43.238;25.306;2023-03-08T00:53:31;10.37;;;6.07;;
67715;SDS011;54508;43.238;25.306;2023-03-08T00:55:57;11.02;;;5.90;;
67715;SDS011;54508;43.238;25.306;2023-03-08T00:58:25;9.68;;;5.72;;
67715;SDS011;54508;43.238;25.306;2023-03-08T01:00:51;8.38;;;5.50;;
67715;SDS011;54508;43.238;25.306;2023-03-08T01:03:17;8.73;;;5.77;;
67715;SDS011;54508;43.238;25.306;2023-03-08T01:05:44;7.97;;;5.53;;
67715;SDS011;54508;43.238;25.306;2023-03-08T01:08:11;8.63;;;6.07;;
67715;SDS011;54508;43.238;25.306;2023-03-08T01:10:36;9.05;;;5.20;;
67715;SDS011;54508;43.238;25.306;2023-03-08T01:13:03;9.37;;;5.63;;
67715;SDS011;54508;43.238;25.306;2023-03-08T01:15:28;9.82;;;5.70;;
67715;SDS011;54508;43.238;25.306;2023-03-08T01:17:54;8.43;;;5.57;;
67715;SDS011;54508;43.238;25.306;2023-03-08T01:20:20;10.13;;;5.97;;
67715;SDS011;54508;43.238;25.306;2023-03-08T01:22:45;9.47;;;5.57;;
67715;SDS011;54508;43.238;25.306;2023-03-08T01:25:10;7.47;;;4.87;;
67715;SDS011;54508;43.238;25.306;2023-03-08T01:27:36;7.82;;;5.53;;
67715;SDS011;54508;43.238;25.306;2023-03-08T01:30:02;9.45;;;5.15;;
67715;SDS011;54508;43.238;25.306;2023-03-08T01:32:27;8.30;;;5.07;;
67715;SDS011;54508;43.238;25.306;2023-03-08T01:34:53;8.60;;;5.70;;
67715;SDS011;54508;43.238;25.306;2023-03-08T01:37:19;8.82;;;5.78;;
67715;SDS011;54508;43.238;25.306;2023-03-08T01:39:45;8.25;;;5.50;;
67715;SDS011;54508;43.238;25.306;2023-03-08T01:42:10;11.57;;;5.83;;
67715;SDS011;54508;43.238;25.306;2023-03-08T01:44:55;9.07;;;5.77;;
67715;SDS011;54508;43.238;25.306;2023-03-08T01:47:29;9.23;;;5.57;;
67715;SDS011;54508;43.238;25.306;2023-03-08T01:50:01;10.15;;;5.57;;
67715;SDS011;54508;43.238;25.306;2023-03-08T01:52:32;8.77;;;5.65;;
67715;SDS011;54508;43.238;25.306;2023-03-08T01:55:01;9.10;;;5.82;;
67715;SDS011;54508;43.238;25.306;2023-03-08T01:57:30;8.20;;;5.72;;
67715;SDS011;54508;43.238;25.306;2023-03-08T02:05:25;10.63;;;6.05;;
67715;SDS011;54508;43.238;25.306;2023-03-08T02:07:51;7.45;;;5.57;;
67715;SDS011;54508;43.238;25.306;2023-03-08T02:10:16;9.05;;;5.60;;
67715;SDS011;54508;43.238;25.306;2023-03-08T02:12:42;8.97;;;5.40;;
67715;SDS011;54508;43.238;25.306;2023-03-08T02:15:11;8.27;;;5.32;;
67715;SDS011;54508;43.238;25.306;2023-03-08T02:17:38;7.72;;;5.50;;
67715;SDS011;54508;43.238;25.306;2023-03-08T02:22:42;10.35;;;5.22;;
67715;SDS011;54508;43.238;25.306;2023-03-08T02:25:12;8.65;;;5.68;;
67715;SDS011;54508;43.238;25.306;2023-03-08T02:27:42;8.15;;;5.43;;
67715;SDS011;54508;43.238;25.306;2023-03-08T02:30:08;7.87;;;4.87;;
67715;SDS011;54508;43.238;25.306;2023-03-08T02:32:36;8.25;;;5.65;;
67715;SDS011;54508;43.238;25.306;2023-03-08T02:35:01;7.30;;;4.93;;
67715;SDS011;54508;43.238;25.306;2023-03-08T02:37:27;7.15;;;4.57;;
67715;SDS011;54508;43.238;25.306;2023-03-08T02:39:53;8.23;;;5.10;;
67715;SDS011;54508;43.238;25.306;2023-03-08T02:42:18;6.88;;;5.00;;
67715;SDS011;54508;43.238;25.306;2023-03-08T02:44:43;7.65;;;5.28;;
67715;SDS011;54508;43.238;25.306;2023-03-08T02:47:09;7.37;;;5.77;;
67715;SDS011;54508;43.238;25.306;2023-03-08T02:49:34;8.77;;;4.87;;
67715;SDS011;54508;43.238;25.306;2023-03-08T02:52:00;8.35;;;5.53;;
67715;SDS011;54508;43.238;25.306;2023-03-08T02:54:25;7.37;;;4.73;;
67715;SDS011;54508;43.238;25.306;2023-03-08T02:56:51;7.40;;;5.03;;
67715;SDS011;54508;43.238;25.306;2023-03-08T02:59:16;8.73;;;5.63;;
67715;SDS011;54508;43.238;25.306;2023-03-08T03:01:42;7.38;;;4.70;;
67715;SDS011;54508;43.238;25.306;2023-03-08T03:04:07;7.35;;;5.25;;
67715;SDS011;54508;43.238;25.306;2023-03-08T03:06:33;8.00;;;5.53;;
67715;SDS011;54508;43.238;25.306;2023-03-08T03:08:58;6.30;;;5.30;;
67715;SDS011;54508;43.238;25.306;2023-03-08T03:11:24;7.57;;;4.65;;
67715;SDS011;54508;43.238;25.306;2023-03-08T03:13:56;9.50;;;5.90;;
67715;SDS011;54508;43.238;25.306;2023-03-08T03:16:22;8.65;;;5.90;;
67715;SDS011;54508;43.238;25.306;2023-03-08T03:18:54;9.17;;;5.63;;
67715;SDS011;54508;43.238;25.306;2023-03-08T03:21:25;7.30;;;5.40;;
67715;SDS011;54508;43.238;25.306;2023-03-08T03:23:52;8.33;;;5.60;;
67715;SDS011;54508;43.238;25.306;2023-03-08T03:26:19;8.88;;;5.93;;
67715;SDS011;54508;43.238;25.306;2023-03-08T03:28:48;7.88;;;5.97;;
67715;SDS011;54508;43.238;25.306;2023-03-08T03:31:15;6.47;;;5.10;;
67715;SDS011;54508;43.238;25.306;2023-03-08T03:33:42;8.47;;;5.67;;
67715;SDS011;54508;43.238;25.306;2023-03-08T03:36:12;9.15;;;5.40;;
67715;SDS011;54508;43.238;25.306;2023-03-08T03:38:39;12.60;;;6.18;;
67715;SDS011;54508;43.238;25.306;2023-03-08T03:41:11;10.23;;;5.93;;
67715;SDS011;54508;43.238;25.306;2023-03-08T03:43:38;9.85;;;6.55;;
67715;SDS011;54508;43.238;25.306;2023-03-08T03:46:04;8.15;;;5.85;;
67715;SDS011;54508;43.238;25.306;2023-03-08T03:48:33;10.60;;;6.93;;
67715;SDS011;54508;43.238;25.306;2023-03-08T03:51:00;8.77;;;5.88;;
67715;SDS011;54508;43.238;25.306;2023-03-08T03:53:27;10.50;;;5.90;;
67715;SDS011;54508;43.238;25.306;2023-03-08T03:55:53;7.83;;;5.67;;
67715;SDS011;54508;43.238;25.306;2023-03-08T03:58:19;9.52;;;6.20;;
67715;SDS011;54508;43.238;25.306;2023-03-08T04:00:45;8.75;;;5.68;;
67715;SDS011;54508;43.238;25.306;2023-03-08T04:03:10;10.23;;;6.18;;
67715;SDS011;54508;43.238;25.306;2023-03-08T04:05:36;10.33;;;6.37;;
67715;SDS011;54508;43.238;25.306;2023-03-08T04:08:04;7.20;;;5.40;;
67715;SDS011;54508;43.238;25.306;2023-03-08T04:13:26;9.25;;;6.30;;
67715;SDS011;54508;43.238;25.306;2023-03-08T04:15:51;8.60;;;5.80;;
67715;SDS011;54508;43.238;25.306;2023-03-08T04:18:17;10.70;;;6.17;;
67715;SDS011;54508;43.238;25.306;2023-03-08T04:20:44;9.15;;;5.68;;
67715;SDS011;54508;43.238;25.306;2023-03-08T04:23:09;12.20;;;6.10;;
67715;SDS011;54508;43.238;25.306;2023-03-08T04:25:35;8.30;;;5.93;;
67715;SDS011;54508;43.238;25.306;2023-03-08T04:28:00;7.75;;;6.25;;
67715;SDS011;54508;43.238;25.306;2023-03-08T04:30:43;7.68;;;6.22;;
67715;SDS011;54508;43.238;25.306;2023-03-08T04:33:14;10.43;;;6.53;;
67715;SDS011;54508;43.238;25.306;2023-03-08T04:35:51;9.43;;;6.22;;
67715;SDS011;54508;43.238;25.306;2023-03-08T04:38:17;10.75;;;5.93;;
67715;SDS011;54508;43.238;25.306;2023-03-08T04:40:46;7.33;;;5.83;;
67715;SDS011;54508;43.238;25.306;2023-03-08T04:43:26;9.70;;;6.03;;
67715;SDS011;54508;43.238;25.306;2023-03-08T04:45:51;11.25;;;6.25;;
67715;SDS011;54508;43.238;25.306;2023-03-08T04:48:17;8.20;;;6.80;;
67715;SDS011;54508;43.238;25.306;2023-03-08T04:50:42;10.77;;;6.40;;
67715;SDS011;54508;43.238;25.306;2023-03-08T04:53:08;10.00;;;6.87;;
67715;SDS011;54508;43.238;25.306;2023-03-08T04:55:36;10.00;;;6.05;;
67715;SDS011;54508;43.238;25.306;2023-03-08T04:58:02;11.90;;;6.70;;
67715;SDS011;54508;43.238;25.306;2023-03-08T05:00:27;11.10;;;6.60;;
67715;SDS011;54508;43.238;25.306;2023-03-08T05:02:53;10.67;;;6.73;;
67715;SDS011;54508;43.238;25.306;2023-03-08T05:05:18;10.40;;;6.33;;
67715;SDS011;54508;43.238;25.306;2023-03-08T05:07:44;12.77;;;6.82;;
67715;SDS011;54508;43.238;25.306;2023-03-08T05:10:09;13.83;;;6.67;;
67715;SDS011;54508;43.238;25.306;2023-03-08T05:12:35;11.50;;;6.63;;
67715;SDS011;54508;43.238;25.306;2023-03-08T05:15:00;9.48;;;6.63;;
67715;SDS011;54508;43.238;25.306;2023-03-08T05:17:26;10.63;;;7.00;;
67715;SDS011;54508;43.238;25.306;2023-03-08T05:19:51;14.90;;;7.20;;
67715;SDS011;54508;43.238;25.306;2023-03-08T05:22:17;11.77;;;6.43;;
67715;SDS011;54508;43.238;25.306;2023-03-08T05:24:42;11.13;;;7.15;;
67715;SDS011;54508;43.238;25.306;2023-03-08T05:27:08;12.73;;;7.00;;
67715;SDS011;54508;43.238;25.306;2023-03-08T05:29:33;9.60;;;6.63;;
67715;SDS011;54508;43.238;25.306;2023-03-08T05:32:01;10.65;;;6.93;;
67715;SDS011;54508;43.238;25.306;2023-03-08T05:34:27;14.85;;;7.40;;
67715;SDS011;54508;43.238;25.306;2023-03-08T05:36:53;10.77;;;7.05;;
67715;SDS011;54508;43.238;25.306;2023-03-08T05:39:19;12.80;;;7.33;;
67715;SDS011;54508;43.238;25.306;2023-03-08T05:41:44;14.30;;;7.23;;
67715;SDS011;54508;43.238;25.306;2023-03-08T05:44:10;10.70;;;7.18;;
67715;SDS011;54508;43.238;25.306;2023-03-08T05:46:35;9.67;;;6.70;;
67715;SDS011;54508;43.238;25.306;2023-03-08T05:49:04;9.75;;;7.30;;
67715;SDS011;54508;43.238;25.306;2023-03-08T05:51:30;13.18;;;6.75;;
67715;SDS011;54508;43.238;25.306;2023-03-08T05:53:55;10.43;;;6.78;;
67715;SDS011;54508;43.238;25.306;2023-03-08T05:56:21;11.53;;;6.93;;
67715;SDS011;54508;43.238;25.306;2023-03-08T05:58:48;10.00;;;7.18;;
67715;SDS011;54508;43.238;25.306;2023-03-08T06:01:17;10.13;;;7.30;;
67715;SDS011;54508;43.238;25.306;2023-03-08T06:03:48;11.40;;;6.90;;
67715;SDS011;54508;43.238;25.306;2023-03-08T06:06:22;13.07;;;8.00;;
67715;SDS011;54508;43.238;25.306;2023-03-08T06:09:14;17.88;;;7.97;;
67715;SDS011;54508;43.238;25.306;2023-03-08T06:11:40;32.13;;;9.07;;
67715;SDS011;54508;43.238;25.306;2023-03-08T06:14:05;27.80;;;9.30;;
67715;SDS011;54508;43.238;25.306;2023-03-08T06:16:31;19.67;;;8.70;;
67715;SDS011;54508;43.238;25.306;2023-03-08T06:18:56;35.80;;;12.43;;
67715;SDS011;54508;43.238;25.306;2023-03-08T06:21:22;22.38;;;12.73;;
67715;SDS011;54508;43.238;25.306;2023-03-08T06:23:48;23.73;;;12.25;;
67715;SDS011;54508;43.238;25.306;2023-03-08T06:26:20;28.42;;;12.73;;
67715;SDS011;54508;43.238;25.306;2023-03-08T06:28:45;25.17;;;11.63;;
67715;SDS011;54508;43.238;25.306;2023-03-08T06:31:12;29.25;;;10.43;;
67715;SDS011;54508;43.238;25.306;2023-03-08T06:33:39;24.00;;;11.13;;
67715;SDS011;54508;43.238;25.306;2023-03-08T06:36:07;19.35;;;10.15;;
67715;SDS011;54508;43.238;25.306;2023-03-08T06:38:36;18.13;;;10.60;;
67715;SDS011;54508;43.238;25.306;2023-03-08T06:41:03;18.65;;;9.98;;
67715;SDS011;54508;43.238;25.306;2023-03-08T06:43:29;16.38;;;9.57;;
67715;SDS011;54508;43.238;25.306;2023-03-08T06:45:54;23.00;;;10.47;;
67715;SDS011;54508;43.238;25.306;2023-03-08T06:48:20;18.77;;;10.97;;
67715;SDS011;54508;43.238;25.306;2023-03-08T06:50:48;22.13;;;11.65;;
67715;SDS011;54508;43.238;25.306;2023-03-08T06:53:22;21.73;;;11.00;;
67715;SDS011;54508;43.238;25.306;2023-03-08T06:55:47;26.23;;;13.13;;
67715;SDS011;54508;43.238;25.306;2023-03-08T06:58:13;26.23;;;12.20;;
67715;SDS011;54508;43.238;25.306;2023-03-08T07:00:38;38.72;;;13.43;;
67715;SDS011;54508;43.238;25.306;2023-03-08T07:03:04;34.03;;;14.43;;
67715;SDS011;54508;43.238;25.306;2023-03-08T07:05:30;33.70;;;12.63;;
67715;SDS011;54508;43.238;25.306;2023-03-08T07:07:55;36.83;;;14.02;;
67715;SDS011;54508;43.238;25.306;2023-03-08T07:10:21;34.03;;;13.43;;
67715;SDS011;54508;43.238;25.306;2023-03-08T07:12:47;36.08;;;17.27;;
67715;SDS011;54508;43.238;25.306;2023-03-08T07:15:16;25.17;;;15.57;;
67715;SDS011;54508;43.238;25.306;2023-03-08T07:17:48;30.88;;;15.07;;
67715;SDS011;54508;43.238;25.306;2023-03-08T07:20:24;42.87;;;22.30;;
67715;SDS011;54508;43.238;25.306;2023-03-08T07:22:50;38.20;;;15.50;;
67715;SDS011;54508;43.238;25.306;2023-03-08T07:25:17;37.35;;;16.90;;
67715;SDS011;54508;43.238;25.306;2023-03-08T07:27:53;23.25;;;16.02;;
67715;SDS011;54508;43.238;25.306;2023-03-08T07:30:24;29.40;;;13.75;;
67715;SDS011;54508;43.238;25.306;2023-03-08T07:32:51;32.10;;;18.67;;
67715;SDS011;54508;43.238;25.306;2023-03-08T07:35:17;30.00;;;18.10;;
67715;SDS011;54508;43.238;25.306;2023-03-08T07:37:45;40.15;;;22.30;;
67715;SDS011;54508;43.238;25.306;2023-03-08T07:40:12;46.92;;;17.50;;
67715;SDS011;54508;43.238;25.306;2023-03-08T07:42:39;24.20;;;13.82;;
67715;SDS011;54508;43.238;25.306;2023-03-08T07:45:04;21.43;;;12.77;;
67715;SDS011;54508;43.238;25.306;2023-03-08T07:47:30;22.15;;;13.55;;
67715;SDS011;54508;43.238;25.306;2023-03-08T07:49:56;32.58;;;19.80;;
67715;SDS011;54508;43.238;25.306;2023-03-08T07:52:25;58.38;;;27.40;;
67715;SDS011;54508;43.238;25.306;2023-03-08T07:54:54;37.17;;;14.82;;
67715;SDS011;54508;43.238;25.306;2023-03-08T07:57:20;29.48;;;13.77;;
67715;SDS011;54508;43.238;25.306;2023-03-08T07:59:45;24.80;;;12.43;;
67715;SDS011;54508;43.238;25.306;2023-03-08T08:02:12;21.95;;;10.05;;
67715;SDS011;54508;43.238;25.306;2023-03-08T08:04:38;20.88;;;9.73;;
67715;SDS011;54508;43.238;25.306;2023-03-08T08:07:03;18.85;;;9.90;;
67715;SDS011;54508;43.238;25.306;2023-03-08T08:09:29;16.03;;;8.87;;
67715;SDS011;54508;43.238;25.306;2023-03-08T08:11:55;28.83;;;10.60;;
67715;SDS011;54508;43.238;25.306;2023-03-08T08:14:20;25.63;;;11.23;;
67715;SDS011;54508;43.238;25.306;2023-03-08T08:16:46;25.43;;;10.67;;
67715;SDS011;54508;43.238;25.306;2023-03-08T08:19:11;22.55;;;9.48;;
67715;SDS011;54508;43.238;25.306;2023-03-08T08:21:38;27.58;;;15.88;;
67715;SDS011;54508;43.238;25.306;2023-03-08T08:24:04;28.97;;;13.37;;
67715;SDS011;54508;43.238;25.306;2023-03-08T08:26:30;14.70;;;9.38;;
67715;SDS011;54508;43.238;25.306;2023-03-08T08:28:56;15.20;;;7.50;;
67715;SDS011;54508;43.238;25.306;2023-03-08T08:31:22;32.60;;;21.35;;
67715;SDS011;54508;43.238;25.306;2023-03-08T08:33:50;25.58;;;12.63;;
67715;SDS011;54508;43.238;25.306;2023-03-08T08:36:16;15.48;;;5.72;;
67715;SDS011;54508;43.238;25.306;2023-03-08T08:38:43;6.32;;;3.55;;
67715;SDS011;54508;43.238;25.306;2023-03-08T08:41:12;10.40;;;3.23;;
67715;SDS011;54508;43.238;25.306;2023-03-08T08:43:42;5.95;;;2.20;;
67715;SDS011;54508;43.238;25.306;2023-03-08T08:46:08;15.57;;;2.50;;
67715;SDS011;54508;43.238;25.306;2023-03-08T08:48:34;7.90;;;2.10;;
67715;SDS011;54508;43.238;25.306;2023-03-08T08:51:02;5.00;;;2.50;;
67715;SDS011;54508;43.238;25.306;2023-03-08T08:53:29;4.68;;;1.95;;
67715;SDS011;54508;43.238;25.306;2023-03-08T08:55:54;11.25;;;2.22;;
67715;SDS011;54508;43.238;25.306;2023-03-08T08:58:20;8.90;;;2.30;;
67715;SDS011;54508;43.238;25.306;2023-03-08T09:00:45;2.90;;;2.10;;
67715;SDS011;54508;43.238;25.306;2023-03-08T09:03:11;5.28;;;2.08;;
67715;SDS011;54508;43.238;25.306;2023-03-08T09:05:38;6.63;;;2.57;;
67715;SDS011;54508;43.238;25.306;2023-03-08T09:08:05;5.60;;;2.50;;
67715;SDS011;54508;43.238;25.306;2023-03-08T09:10:32;3.50;;;1.70;;
67715;SDS011;54508;43.238;25.306;2023-03-08T09:12:59;2.90;;;2.00;;
67715;SDS011;54508;43.238;25.306;2023-03-08T09:15:24;7.00;;;2.90;;
67715;SDS011;54508;43.238;25.306;2023-03-08T09:17:50;4.78;;;2.28;;
67715;SDS011;54508;43.238;25.306;2023-03-08T09:20:16;5.07;;;2.40;;
67715;SDS011;54508;43.238;25.306;2023-03-08T09:22:42;5.03;;;1.83;;
67715;SDS011;54508;43.238;25.306;2023-03-08T09:25:08;7.00;;;2.20;;
67715;SDS011;54508;43.238;25.306;2023-03-08T09:27:53;4.65;;;2.20;;
67715;SDS011;54508;43.238;25.306;2023-03-08T09:30:21;5.97;;;3.35;;
67715;SDS011;54508;43.238;25.306;2023-03-08T09:32:46;6.37;;;3.90;;
67715;SDS011;54508;43.238;25.306;2023-03-08T09:35:28;6.13;;;3.78;;
67715;SDS011;54508;43.238;25.306;2023-03-08T09:37:54;13.70;;;3.90;;
67715;SDS011;54508;43.238;25.306;2023-03-08T09:40:21;17.05;;;3.55;;
67715;SDS011;54508;43.238;25.306;2023-03-08T09:42:49;10.93;;;3.73;;
67715;SDS011;54508;43.238;25.306;2023-03-08T09:48:25;13.73;;;3.45;;
67715;SDS011;54508;43.238;25.306;2023-03-08T09:50:54;6.53;;;3.90;;
67715;SDS011;54508;43.238;25.306;2023-03-08T10:09:49;11.50;;;3.67;;
67715;SDS011;54508;43.238;25.306;2023-03-08T10:15:02;14.13;;;3.47;;
67715;SDS011;54508;43.238;25.306;2023-03-08T10:22:45;21.50;;;8.48;;
67715;SDS011;54508;43.238;25.306;2023-03-08T10:25:28;16.88;;;7.88;;
67715;SDS011;54508;43.238;25.306;2023-03-08T10:27:59;20.08;;;7.57;;
67715;SDS011;54508;43.238;25.306;2023-03-08T10:30:30;18.33;;;6.87;;
67715;SDS011;54508;43.238;25.306;2023-03-08T10:33:09;15.68;;;5.88;;
67715;SDS011;54508;43.238;25.306;2023-03-08T10:38:35;14.07;;;5.43;;
67715;SDS011;54508;43.238;25.306;2023-03-08T10:41:14;15.65;;;5.00;;
67715;SDS011;54508;43.238;25.306;2023-03-08T10:43:45;13.40;;;5.30;;
67715;SDS011;54508;43.238;25.306;2023-03-08T10:46:16;8.07;;;4.53;;
67715;SDS011;54508;43.238;25.306;2023-03-08T10:48:46;9.32;;;4.55;;
67715;SDS011;54508;43.238;25.306;2023-03-08T10:51:17;10.88;;;3.88;;
67715;SDS011;54508;43.238;25.306;2023-03-08T10:54:00;17.52;;;4.50;;
67715;SDS011;54508;43.238;25.306;2023-03-08T10:59:05;7.20;;;4.57;;
67715;SDS011;54508;43.238;25.306;2023-03-08T11:01:46;12.73;;;4.20;;
67715;SDS011;54508;43.238;25.306;2023-03-08T11:04:15;9.32;;;4.25;;
67715;SDS011;54508;43.238;25.306;2023-03-08T11:06:42;9.95;;;3.65;;
67715;SDS011;54508;43.238;25.306;2023-03-08T11:09:21;5.80;;;4.17;;
67715;SDS011;54508;43.238;25.306;2023-03-08T11:11:55;5.15;;;3.95;;
67715;SDS011;54508;43.238;25.306;2023-03-08T11:14:22;9.20;;;3.78;;
67715;SDS011;54508;43.238;25.306;2023-03-08T11:22:17;5.55;;;2.50;;
67715;SDS011;54508;43.238;25.306;2023-03-08T11:36:23;4.47;;;2.40;;
67715;SDS011;54508;43.238;25.306;2023-03-08T11:41:54;7.95;;;2.20;;
67715;SDS011;54508;43.238;25.306;2023-03-08T11:47:21;6.93;;;1.80;;
67715;SDS011;54508;43.238;25.306;2023-03-08T12:00:59;8.02;;;2.00;;
67715;SDS011;54508;43.238;25.306;2023-03-08T12:03:30;5.28;;;1.92;;
67715;SDS011;54508;43.238;25.306;2023-03-08T12:06:01;6.03;;;1.50;;
67715;SDS011;54508;43.238;25.306;2023-03-08T12:08:35;2.67;;;1.60;;
67715;SDS011;54508;43.238;25.306;2023-03-08T12:11:35;4.63;;;1.90;;
67715;SDS011;54508;43.238;25.306;2023-03-08T12:14:09;3.75;;;1.60;;
67715;SDS011;54508;43.238;25.306;2023-03-08T12:29:53;6.28;;;1.80;;
67715;SDS011;54508;43.238;25.306;2023-03-08T12:32:40;10.73;;;2.15;;
67715;SDS011;54508;43.238;25.306;2023-03-08T12:35:22;8.98;;;1.80;;
67715;SDS011;54508;43.238;25.306;2023-03-08T12:40:46;22.38;;;1.95;;
67715;SDS011;54508;43.238;25.306;2023-03-08T12:48:37;10.70;;;2.53;;
67715;SDS011;54508;43.238;25.306;2023-03-08T12:58:48;6.57;;;2.38;;
67715;SDS011;54508;43.238;25.306;2023-03-08T13:04:27;6.93;;;1.98;;
67715;SDS011;54508;43.238;25.306;2023-03-08T13:10:20;4.55;;;1.58;;
67715;SDS011;54508;43.238;25.306;2023-03-08T13:16:02;5.90;;;1.80;;
67715;SDS011;54508;43.238;25.306;2023-03-08T13:18:32;3.45;;;1.77;;
67715;SDS011;54508;43.238;25.306;2023-03-08T13:21:07;7.00;;;1.90;;
67715;SDS011;54508;43.238;25.306;2023-03-08T13:29:59;3.25;;;1.60;;
67715;SDS011;54508;43.238;25.306;2023-03-08T13:32:37;5.25;;;2.03;;
67715;SDS011;54508;43.238;25.306;2023-03-08T13:35:04;5.32;;;1.73;;
67715;SDS011;54508;43.238;25.306;2023-03-08T13:37:30;14.03;;;2.33;;
67715;SDS011;54508;43.238;25.306;2023-03-08T13:40:15;8.63;;;2.00;;
67715;SDS011;54508;43.238;25.306;2023-03-08T13:42:58;5.88;;;1.98;;
67715;SDS011;54508;43.238;25.306;2023-03-08T13:45:27;7.53;;;1.85;;
67715;SDS011;54508;43.238;25.306;2023-03-08T13:48:07;3.05;;;1.60;;
67715;SDS011;54508;43.238;25.306;2023-03-08T13:50:43;7.15;;;1.63;;
67715;SDS011;54508;43.238;25.306;2023-03-08T13:53:31;4.17;;;1.87;;
67715;SDS011;54508;43.238;25.306;2023-03-08T13:55:58;4.13;;;1.80;;
67715;SDS011;54508;43.238;25.306;2023-03-08T13:58:35;6.22;;;2.15;;
67715;SDS011;54508;43.238;25.306;2023-03-08T14:01:25;9.45;;;1.73;;
67715;SDS011;54508;43.238;25.306;2023-03-08T14:03:50;6.05;;;1.92;;
67715;SDS011;54508;43.238;25.306;2023-03-08T14:06:18;4.23;;;1.63;;
67715;SDS011;54508;43.238;25.306;2023-03-08T14:08:49;8.85;;;1.77;;
67715;SDS011;54508;43.238;25.306;2023-03-08T14:11:17;4.43;;;1.95;;
67715;SDS011;54508;43.238;25.306;2023-03-08T14:13:49;6.25;;;1.70;;
67715;SDS011;54508;43.238;25.306;2023-03-08T14:16:22;12.40;;;2.17;;
67715;SDS011;54508;43.238;25.306;2023-03-08T14:18:49;3.77;;;1.63;;
67715;SDS011;54508;43.238;25.306;2023-03-08T14:21:16;6.28;;;2.35;;
67715;SDS011;54508;43.238;25.306;2023-03-08T14:23:46;4.35;;;2.33;;
67715;SDS011;54508;43.238;25.306;2023-03-08T14:29:20;5.97;;;1.80;;
67715;SDS011;54508;43.238;25.306;2023-03-08T14:31:53;15.23;;;2.15;;
67715;SDS011;54508;43.238;25.306;2023-03-08T14:34:30;8.98;;;2.38;;
67715;SDS011;54508;43.238;25.306;2023-03-08T14:39:45;7.05;;;1.77;;
67715;SDS011;54508;43.238;25.306;2023-03-08T14:42:22;8.50;;;1.90;;
67715;SDS011;54508;43.238;25.306;2023-03-08T14:44:55;8.35;;;2.45;;
67715;SDS011;54508;43.238;25.306;2023-03-08T14:47:24;12.77;;;2.17;;
67715;SDS011;54508;43.238;25.306;2023-03-08T14:52:33;10.75;;;2.22;;
67715;SDS011;54508;43.238;25.306;2023-03-08T14:55:00;4.37;;;1.73;;
67715;SDS011;54508;43.238;25.306;2023-03-08T14:57:27;13.52;;;2.38;;
67715;SDS011;54508;43.238;25.306;2023-03-08T15:00:27;8.95;;;2.60;;
67715;SDS011;54508;43.238;25.306;2023-03-08T15:02:46;6.47;;;1.77;;
67715;SDS011;54508;43.238;25.306;2023-03-08T15:05:13;6.53;;;1.83;;
67715;SDS011;54508;43.238;25.306;2023-03-08T15:10:38;8.27;;;2.08;;
67715;SDS011;54508;43.238;25.306;2023-03-08T15:13:13;11.80;;;2.10;;
67715;SDS011;54508;43.238;25.306;2023-03-08T15:15:38;7.32;;;1.73;;
67715;SDS011;54508;43.238;25.306;2023-03-08T15:18:04;10.48;;;2.13;;
67715;SDS011;54508;43.238;25.306;2023-03-08T15:20:29;8.67;;;2.00;;
67715;SDS011;54508;43.238;25.306;2023-03-08T15:22:56;9.33;;;2.30;;
67715;SDS011;54508;43.238;25.306;2023-03-08T15:25:26;8.32;;;2.65;;
67715;SDS011;54508;43.238;25.306;2023-03-08T15:27:54;7.93;;;2.17;;
67715;SDS011;54508;43.238;25.306;2023-03-08T15:30:20;6.13;;;1.83;;
67715;SDS011;54508;43.238;25.306;2023-03-08T15:32:51;5.55;;;2.17;;
67715;SDS011;54508;43.238;25.306;2023-03-08T15:35:17;9.90;;;2.15;;
67715;SDS011;54508;43.238;25.306;2023-03-08T15:37:43;10.77;;;2.53;;
67715;SDS011;54508;43.238;25.306;2023-03-08T15:40:30;7.97;;;2.30;;
67715;SDS011;54508;43.238;25.306;2023-03-08T15:42:55;6.60;;;2.05;;
67715;SDS011;54508;43.238;25.306;2023-03-08T15:45:21;10.57;;;2.97;;
67715;SDS011;54508;43.238;25.306;2023-03-08T15:50:37;13.55;;;4.70;;
67715;SDS011;54508;43.238;25.306;2023-03-08T15:53:07;21.42;;;4.97;;
67715;SDS011;54508;43.238;25.306;2023-03-08T15:55:34;12.35;;;5.55;;
67715;SDS011;54508;43.238;25.306;2023-03-08T15:58:00;18.90;;;5.05;;
67715;SDS011;54508;43.238;25.306;2023-03-08T16:00:26;13.63;;;5.97;;
67715;SDS011;54508;43.238;25.306;2023-03-08T16:02:51;11.07;;;5.47;;
67715;SDS011;54508;43.238;25.306;2023-03-08T16:05:17;12.47;;;5.87;;
67715;SDS011;54508;43.238;25.306;2023-03-08T16:07:46;7.00;;;4.28;;
67715;SDS011;54508;43.238;25.306;2023-03-08T16:10:16;17.23;;;4.35;;
67715;SDS011;54508;43.238;25.306;2023-03-08T16:12:41;9.43;;;3.67;;
67715;SDS011;54508;43.238;25.306;2023-03-08T16:15:07;7.40;;;4.43;;
67715;SDS011;54508;43.238;25.306;2023-03-08T16:17:34;8.13;;;4.22;;
67715;SDS011;54508;43.238;25.306;2023-03-08T16:20:00;7.80;;;4.20;;
67715;SDS011;54508;43.238;25.306;2023-03-08T16:22:27;6.60;;;3.97;;
67715;SDS011;54508;43.238;25.306;2023-03-08T16:24:52;8.90;;;4.50;;
67715;SDS011;54508;43.238;25.306;2023-03-08T16:27:18;10.47;;;4.67;;
67715;SDS011;54508;43.238;25.306;2023-03-08T16:29:44;6.65;;;4.45;;
67715;SDS011;54508;43.238;25.306;2023-03-08T16:32:14;8.93;;;4.53;;
67715;SDS011;54508;43.238;25.306;2023-03-08T16:34:39;8.83;;;4.90;;
67715;SDS011;54508;43.238;25.306;2023-03-08T16:37:05;8.77;;;4.73;;
67715;SDS011;54508;43.238;25.306;2023-03-08T16:39:30;13.10;;;4.70;;
67715;SDS011;54508;43.238;25.306;2023-03-08T16:41:56;10.77;;;5.53;;
67715;SDS011;54508;43.238;25.306;2023-03-08T16:44:25;9.95;;;4.75;;
67715;SDS011;54508;43.238;25.306;2023-03-08T16:46:52;8.02;;;4.57;;
67715;SDS011;54508;43.238;25.306;2023-03-08T16:49:18;7.67;;;4.90;;